sensor_id;sensor_type;location;lat;lon;timestamp;pressure;altitude;pressure_sealevel;temperature;humidity
30339;BME280;795;49.296;11.348;2023-02-01T00:01:08;96543.00;;;0.63;100.00
30339;BME280;795;49.296;11.348;2023-02-01T00:03:35;96369.34;;;-0.59;100.00
30339;BME280;795;49.296;11.348;2023-02-01T00:06:03;96279.28;;;-1.18;100.00
30339;BME280;795;49.296;11.348;2023-02-01T00:08:30;96374.72;;;-0.48;100.00
30339;BME280;795;49.296;11.348;2023-02-01T00:11:04;96764.78;;;1.93;100.00
30339;BME280;795;49.296;11.348;2023-02-01T00:13:36;96771.75;;;1.94;100.00
30339;BME280;795;49.296;11.348;2023-02-01T00:16:18;96461.34;;;-0.03;100.00
30339;BME280;795;49.296;11.348;2023-02-01T00:18:50;96747.84;;;1.83;100.00
30339;BME280;795;49.296;11.348;2023-02-01T00:21:20;96204.97;;;-1.36;100.00
30339;BME280;795;49.296;11.348;2023-02-01T00:23:48;96440.09;;;-0.14;100.00
30339;BME280;795;49.296;11.348;2023-02-01T00:26:23;96279.91;;;-0.88;100.00
30339;BME280;795;49.296;11.348;2023-02-01T00:28:52;96598.69;;;0.85;100.00
30339;BME280;795;49.296;11.348;2023-02-01T00:31:20;96442.00;;;-0.16;100.00
30339;BME280;795;49.296;11.348;2023-02-01T00:33:48;96577.16;;;0.91;100.00
30339;BME280;795;49.296;11.348;2023-02-01T00:36:16;96563.00;;;0.80;100.00
30339;BME280;795;49.296;11.348;2023-02-01T00:38:44;96513.22;;;0.36;100.00
30339;BME280;795;49.296;11.348;2023-02-01T00:41:19;96591.44;;;1.01;100.00
30339;BME280;795;49.296;11.348;2023-02-01T00:43:48;96725.47;;;1.87;100.00
30339;BME280;795;49.296;11.348;2023-02-01T00:46:18;96429.97;;;0.05;100.00
30339;BME280;795;49.296;11.348;2023-02-01T00:48:46;96549.03;;;0.78;100.00
30339;BME280;795;49.296;11.348;2023-02-01T00:51:18;96393.34;;;-0.12;100.00
30339;BME280;795;49.296;11.348;2023-02-01T00:53:46;96745.38;;;2.06;100.00
30339;BME280;795;49.296;11.348;2023-02-01T00:56:14;96717.41;;;1.89;100.00
30339;BME280;795;49.296;11.348;2023-02-01T00:58:41;96700.63;;;1.77;100.00
30339;BME280;795;49.296;11.348;2023-02-01T01:01:19;96755.44;;;2.13;100.00
30339;BME280;795;49.296;11.348;2023-02-01T01:03:57;96290.88;;;-0.69;100.00
30339;BME280;795;49.296;11.348;2023-02-01T01:06:32;96293.94;;;-0.75;100.00
30339;BME280;795;49.296;11.348;2023-02-01T01:09:06;96633.28;;;1.45;100.00
30339;BME280;795;49.296;11.348;2023-02-01T01:11:37;96758.81;;;2.15;100.00
30339;BME280;795;49.296;11.348;2023-02-01T01:14:07;96741.41;;;2.11;100.00
30339;BME280;795;49.296;11.348;2023-02-01T01:16:36;96366.53;;;-0.31;100.00
30339;BME280;795;49.296;11.348;2023-02-01T01:19:04;96567.84;;;0.98;100.00
30339;BME280;795;49.296;11.348;2023-02-01T01:21:32;96455.53;;;0.30;100.00
30339;BME280;795;49.296;11.348;2023-02-01T01:23:59;96607.97;;;1.28;100.00
30339;BME280;795;49.296;11.348;2023-02-01T01:26:29;96485.13;;;0.60;100.00
30339;BME280;795;49.296;11.348;2023-02-01T01:28:58;96747.53;;;2.24;100.00
30339;BME280;795;49.296;11.348;2023-02-01T01:31:27;96519.09;;;0.90;100.00
30339;BME280;795;49.296;11.348;2023-02-01T01:33:58;96742.97;;;2.26;100.00
30339;BME280;795;49.296;11.348;2023-02-01T01:36:28;96694.53;;;2.00;100.00
30339;BME280;795;49.296;11.348;2023-02-01T01:38:55;96616.28;;;1.60;100.00
30339;BME280;795;49.296;11.348;2023-02-01T01:41:30;96723.31;;;2.18;100.00
30339;BME280;795;49.296;11.348;2023-02-01T01:44:05;96672.13;;;1.93;100.00
30339;BME280;795;49.296;11.348;2023-02-01T01:46:38;96728.78;;;2.27;100.00
30339;BME280;795;49.296;11.348;2023-02-01T01:49:18;96610.25;;;1.58;100.00
30339;BME280;795;49.296;11.348;2023-02-01T01:52:02;96661.34;;;1.84;100.00
30339;BME280;795;49.296;11.348;2023-02-01T01:54:41;96596.31;;;1.44;100.00
30339;BME280;795;49.296;11.348;2023-02-01T01:57:26;96722.13;;;2.22;100.00
30339;BME280;795;49.296;11.348;2023-02-01T02:00:13;96596.25;;;1.45;100.00
30339;BME280;795;49.296;11.348;2023-02-01T02:02:53;96614.63;;;1.59;100.00
30339;BME280;795;49.296;11.348;2023-02-01T02:05:21;96646.63;;;1.67;100.00
30339;BME280;795;49.296;11.348;2023-02-01T02:07:53;96650.31;;;1.77;100.00
30339;BME280;795;49.296;11.348;2023-02-01T02:10:24;96723.81;;;2.23;100.00
30339;BME280;795;49.296;11.348;2023-02-01T02:13:13;96727.94;;;2.27;100.00
30339;BME280;795;49.296;11.348;2023-02-01T02:16:00;96618.94;;;1.60;100.00
30339;BME280;795;49.296;11.348;2023-02-01T02:22:48;96702.34;;;2.15;100.00
30339;BME280;795;49.296;11.348;2023-02-01T02:26:26;96718.81;;;2.31;100.00
30339;BME280;795;49.296;11.348;2023-02-01T02:29:50;96697.91;;;2.15;100.00
30339;BME280;795;49.296;11.348;2023-02-01T02:33:19;96720.16;;;2.36;100.00
30339;BME280;795;49.296;11.348;2023-02-01T02:36:09;96674.09;;;2.03;100.00
30339;BME280;795;49.296;11.348;2023-02-01T02:38:54;96607.13;;;1.77;100.00
30339;BME280;795;49.296;11.348;2023-02-01T02:45:29;96706.72;;;2.39;100.00
30339;BME280;795;49.296;11.348;2023-02-01T02:48:42;96699.38;;;2.43;100.00
30339;BME280;795;49.296;11.348;2023-02-01T02:51:23;96690.91;;;2.38;100.00
30339;BME280;795;49.296;11.348;2023-02-01T02:54:16;96631.28;;;2.09;100.00
30339;BME280;795;49.296;11.348;2023-02-01T02:57:12;96600.56;;;1.82;100.00
30339;BME280;795;49.296;11.348;2023-02-01T03:00:04;96693.22;;;2.42;100.00
30339;BME280;795;49.296;11.348;2023-02-01T03:02:52;96563.03;;;1.65;100.00
30339;BME280;795;49.296;11.348;2023-02-01T03:05:47;96696.50;;;2.46;100.00
30339;BME280;795;49.296;11.348;2023-02-01T03:08:29;96698.94;;;2.49;100.00
30339;BME280;795;49.296;11.348;2023-02-01T03:11:08;96639.47;;;2.06;100.00
30339;BME280;795;49.296;11.348;2023-02-01T03:13:54;96638.47;;;2.07;100.00
30339;BME280;795;49.296;11.348;2023-02-01T03:16:36;96609.91;;;1.99;100.00
30339;BME280;795;49.296;11.348;2023-02-01T03:19:35;96638.69;;;2.03;100.00
30339;BME280;795;49.296;11.348;2023-02-01T03:22:17;96683.50;;;2.30;100.00
30339;BME280;795;49.296;11.348;2023-02-01T03:24:54;96669.44;;;2.30;100.00
30339;BME280;795;49.296;11.348;2023-02-01T03:27:58;96672.03;;;2.19;100.00
30339;BME280;795;49.296;11.348;2023-02-01T03:30:37;96552.72;;;1.49;100.00
30339;BME280;795;49.296;11.348;2023-02-01T03:33:13;96580.47;;;1.67;100.00
30339;BME280;795;49.296;11.348;2023-02-01T03:36:12;96670.44;;;2.16;100.00
30339;BME280;795;49.296;11.348;2023-02-01T03:39:20;96645.75;;;2.16;100.00
30339;BME280;795;49.296;11.348;2023-02-01T03:41:57;96548.56;;;1.58;100.00
30339;BME280;795;49.296;11.348;2023-02-01T03:45:10;96647.03;;;2.23;100.00
30339;BME280;795;49.296;11.348;2023-02-01T03:47:47;96593.00;;;1.89;100.00
30339;BME280;795;49.296;11.348;2023-02-01T03:50:20;96662.19;;;2.44;100.00
30339;BME280;795;49.296;11.348;2023-02-01T03:53:07;96643.06;;;2.28;100.00
30339;BME280;795;49.296;11.348;2023-02-01T03:55:37;96633.66;;;2.24;100.00
30339;BME280;795;49.296;11.348;2023-02-01T03:58:22;96635.75;;;2.32;100.00
30339;BME280;795;49.296;11.348;2023-02-01T04:01:00;96665.00;;;2.54;100.00
30339;BME280;795;49.296;11.348;2023-02-01T04:03:28;96647.56;;;2.39;100.00
30339;BME280;795;49.296;11.348;2023-02-01T04:05:55;96590.59;;;2.10;100.00
30339;BME280;795;49.296;11.348;2023-02-01T04:08:24;96556.59;;;1.92;100.00
30339;BME280;795;49.296;11.348;2023-02-01T04:10:51;96368.53;;;0.77;100.00
30339;BME280;795;49.296;11.348;2023-02-01T04:13:18;96641.22;;;2.52;100.00
30339;BME280;795;49.296;11.348;2023-02-01T04:15:46;96363.19;;;0.90;100.00
30339;BME280;795;49.296;11.348;2023-02-01T04:18:16;96600.22;;;2.34;100.00
30339;BME280;795;49.296;11.348;2023-02-01T04:20:43;96550.59;;;2.01;100.00
30339;BME280;795;49.296;11.348;2023-02-01T04:23:11;96558.31;;;2.05;100.00
30339;BME280;795;49.296;11.348;2023-02-01T04:25:38;96447.94;;;1.36;100.00
30339;BME280;795;49.296;11.348;2023-02-01T04:28:05;96540.72;;;2.03;100.00
30339;BME280;795;49.296;11.348;2023-02-01T04:30:33;96468.19;;;1.71;100.00
30339;BME280;795;49.296;11.348;2023-02-01T04:33:00;96619.84;;;2.66;100.00
30339;BME280;795;49.296;11.348;2023-02-01T04:35:30;96453.44;;;1.32;100.00
30339;BME280;795;49.296;11.348;2023-02-01T04:37:57;96313.59;;;0.70;100.00
30339;BME280;795;49.296;11.348;2023-02-01T04:40:24;96556.78;;;2.37;100.00
30339;BME280;795;49.296;11.348;2023-02-01T04:42:51;96405.38;;;1.39;100.00
30339;BME280;795;49.296;11.348;2023-02-01T04:45:18;96304.88;;;0.80;100.00
30339;BME280;795;49.296;11.348;2023-02-01T04:47:45;96443.53;;;1.47;100.00
30339;BME280;795;49.296;11.348;2023-02-01T04:50:12;96400.34;;;1.36;100.00
30339;BME280;795;49.296;11.348;2023-02-01T04:52:39;96534.31;;;2.19;100.00
30339;BME280;795;49.296;11.348;2023-02-01T04:55:07;96427.38;;;1.63;100.00
30339;BME280;795;49.296;11.348;2023-02-01T04:57:34;96251.50;;;0.40;100.00
30339;BME280;795;49.296;11.348;2023-02-01T05:00:02;96478.44;;;1.76;100.00
30339;BME280;795;49.296;11.348;2023-02-01T05:02:29;96496.56;;;2.04;100.00
30339;BME280;795;49.296;11.348;2023-02-01T05:04:56;96549.91;;;2.34;100.00
30339;BME280;795;49.296;11.348;2023-02-01T05:07:23;96527.34;;;2.18;100.00
30339;BME280;795;49.296;11.348;2023-02-01T05:09:50;96579.44;;;2.52;100.00
30339;BME280;795;49.296;11.348;2023-02-01T05:12:17;96447.47;;;1.65;100.00
30339;BME280;795;49.296;11.348;2023-02-01T05:15:04;96550.31;;;2.17;100.00
30339;BME280;795;49.296;11.348;2023-02-01T05:17:31;96571.97;;;2.46;100.00
30339;BME280;795;49.296;11.348;2023-02-01T05:19:58;96447.22;;;1.57;100.00
30339;BME280;795;49.296;11.348;2023-02-01T05:22:25;96512.31;;;1.94;100.00
30339;BME280;795;49.296;11.348;2023-02-01T05:24:52;96599.16;;;2.37;100.00
30339;BME280;795;49.296;11.348;2023-02-01T05:27:19;96430.00;;;1.28;100.00
30339;BME280;795;49.296;11.348;2023-02-01T05:29:45;96438.84;;;1.51;100.00
30339;BME280;795;49.296;11.348;2023-02-01T05:32:12;96339.97;;;0.82;100.00
30339;BME280;795;49.296;11.348;2023-02-01T05:34:49;96583.19;;;2.26;100.00
30339;BME280;795;49.296;11.348;2023-02-01T05:37:16;96416.81;;;1.15;100.00
30339;BME280;795;49.296;11.348;2023-02-01T05:39:43;96486.13;;;1.55;100.00
30339;BME280;795;49.296;11.348;2023-02-01T05:42:10;96395.69;;;1.03;100.00
30339;BME280;795;49.296;11.348;2023-02-01T05:44:37;96389.81;;;0.99;100.00
30339;BME280;795;49.296;11.348;2023-02-01T05:47:04;96506.66;;;1.64;100.00
30339;BME280;795;49.296;11.348;2023-02-01T05:49:31;96402.44;;;1.07;100.00
30339;BME280;795;49.296;11.348;2023-02-01T05:51:58;96602.25;;;2.31;100.00
30339;BME280;795;49.296;11.348;2023-02-01T05:54:26;96604.03;;;2.30;100.00
30339;BME280;795;49.296;11.348;2023-02-01T05:56:54;96550.94;;;1.97;100.00
30339;BME280;795;49.296;11.348;2023-02-01T05:59:21;96413.34;;;1.02;100.00
30339;BME280;795;49.296;11.348;2023-02-01T06:01:48;96593.56;;;2.29;100.00
30339;BME280;795;49.296;11.348;2023-02-01T06:04:15;96514.50;;;1.77;100.00
30339;BME280;795;49.296;11.348;2023-02-01T06:06:41;96557.94;;;1.98;100.00
30339;BME280;795;49.296;11.348;2023-02-01T06:09:08;96451.88;;;1.30;100.00
30339;BME280;795;49.296;11.348;2023-02-01T06:11:35;96479.88;;;1.32;100.00
30339;BME280;795;49.296;11.348;2023-02-01T06:14:02;96498.28;;;1.58;100.00
30339;BME280;795;49.296;11.348;2023-02-01T06:16:29;96363.28;;;0.64;100.00
30339;BME280;795;49.296;11.348;2023-02-01T06:18:56;96463.56;;;1.02;100.00
30339;BME280;795;49.296;11.348;2023-02-01T06:21:23;96605.63;;;1.85;100.00
30339;BME280;795;49.296;11.348;2023-02-01T06:23:54;96529.59;;;1.40;100.00
30339;BME280;795;49.296;11.348;2023-02-01T06:26:21;96450.19;;;0.93;100.00
30339;BME280;795;49.296;11.348;2023-02-01T06:28:49;96389.84;;;0.50;100.00
30339;BME280;795;49.296;11.348;2023-02-01T06:31:16;96470.66;;;1.02;100.00
30339;BME280;795;49.296;11.348;2023-02-01T06:33:43;96513.84;;;1.26;100.00
30339;BME280;795;49.296;11.348;2023-02-01T06:36:13;96543.97;;;1.36;100.00
30339;BME280;795;49.296;11.348;2023-02-01T06:38:41;96366.06;;;0.50;100.00
30339;BME280;795;49.296;11.348;2023-02-01T06:41:09;96602.44;;;1.93;100.00
30339;BME280;795;49.296;11.348;2023-02-01T06:43:36;96601.53;;;1.81;100.00
30339;BME280;795;49.296;11.348;2023-02-01T06:46:09;96612.69;;;1.97;100.00
30339;BME280;795;49.296;11.348;2023-02-01T06:48:38;96502.91;;;1.43;100.00
30339;BME280;795;49.296;11.348;2023-02-01T06:51:05;96549.16;;;1.74;100.00
30339;BME280;795;49.296;11.348;2023-02-01T06:53:32;96508.56;;;1.62;100.00
30339;BME280;795;49.296;11.348;2023-02-01T06:56:02;96577.19;;;2.00;100.00
30339;BME280;795;49.296;11.348;2023-02-01T06:58:32;96375.56;;;0.89;100.00
30339;BME280;795;49.296;11.348;2023-02-01T07:01:07;96600.09;;;2.36;100.00
30339;BME280;795;49.296;11.348;2023-02-01T07:03:34;96608.69;;;2.39;100.00
30339;BME280;795;49.296;11.348;2023-02-01T07:06:03;96482.50;;;1.69;100.00
30339;BME280;795;49.296;11.348;2023-02-01T07:08:34;96608.94;;;2.47;100.00
30339;BME280;795;49.296;11.348;2023-02-01T07:11:07;96440.91;;;1.47;100.00
30339;BME280;795;49.296;11.348;2023-02-01T07:13:35;96602.13;;;2.56;100.00
30339;BME280;795;49.296;11.348;2023-02-01T07:16:13;96317.66;;;0.86;100.00
30339;BME280;795;49.296;11.348;2023-02-01T07:18:40;96514.59;;;1.99;100.00
30339;BME280;795;49.296;11.348;2023-02-01T07:21:07;96609.00;;;2.58;100.00
30339;BME280;795;49.296;11.348;2023-02-01T07:23:35;96567.13;;;2.40;100.00
30339;BME280;795;49.296;11.348;2023-02-01T07:26:06;96339.59;;;0.99;100.00
30339;BME280;795;49.296;11.348;2023-02-01T07:28:35;96581.13;;;2.42;100.00
30339;BME280;795;49.296;11.348;2023-02-01T07:31:16;96595.97;;;2.55;100.00
30339;BME280;795;49.296;11.348;2023-02-01T07:33:46;96522.13;;;2.16;100.00
30339;BME280;795;49.296;11.348;2023-02-01T07:36:17;96618.31;;;2.75;100.00
30339;BME280;795;49.296;11.348;2023-02-01T07:38:45;96627.72;;;2.79;100.00
30339;BME280;795;49.296;11.348;2023-02-01T07:41:14;96572.41;;;2.40;100.00
30339;BME280;795;49.296;11.348;2023-02-01T07:43:42;96524.06;;;2.14;100.00
30339;BME280;795;49.296;11.348;2023-02-01T07:46:11;96625.69;;;2.83;100.00
30339;BME280;795;49.296;11.348;2023-02-01T07:48:38;96459.94;;;1.87;100.00
30339;BME280;795;49.296;11.348;2023-02-01T07:51:10;96628.94;;;2.86;100.00
30339;BME280;795;49.296;11.348;2023-02-01T07:53:40;96584.06;;;2.61;100.00
30339;BME280;795;49.296;11.348;2023-02-01T07:56:19;96635.72;;;2.90;100.00
30339;BME280;795;49.296;11.348;2023-02-01T07:58:53;96633.06;;;2.90;100.00
30339;BME280;795;49.296;11.348;2023-02-01T08:01:25;96555.69;;;2.39;100.00
30339;BME280;795;49.296;11.348;2023-02-01T08:04:04;96514.69;;;2.21;100.00
30339;BME280;795;49.296;11.348;2023-02-01T08:06:33;96501.56;;;2.20;100.00
30339;BME280;795;49.296;11.348;2023-02-01T08:09:02;96586.38;;;2.77;100.00
30339;BME280;795;49.296;11.348;2023-02-01T08:11:30;96630.78;;;2.97;100.00
30339;BME280;795;49.296;11.348;2023-02-01T08:13:59;96626.28;;;2.86;100.00
30339;BME280;795;49.296;11.348;2023-02-01T08:16:26;96526.56;;;2.39;100.00
30339;BME280;795;49.296;11.348;2023-02-01T08:18:53;96560.44;;;2.69;100.00
30339;BME280;795;49.296;11.348;2023-02-01T08:21:27;96429.06;;;1.98;100.00
30339;BME280;795;49.296;11.348;2023-02-01T08:24:07;96607.41;;;3.13;100.00
30339;BME280;795;49.296;11.348;2023-02-01T08:26:34;96522.00;;;2.52;100.00
30339;BME280;795;49.296;11.348;2023-02-01T08:29:06;96617.19;;;3.12;100.00
30339;BME280;795;49.296;11.348;2023-02-01T08:31:34;96613.59;;;3.24;100.00
30339;BME280;795;49.296;11.348;2023-02-01T08:34:02;96434.38;;;2.21;100.00
30339;BME280;795;49.296;11.348;2023-02-01T08:36:32;96370.78;;;1.87;100.00
30339;BME280;795;49.296;11.348;2023-02-01T08:39:01;96605.13;;;3.30;100.00
30339;BME280;795;49.296;11.348;2023-02-01T08:41:30;96518.53;;;2.74;100.00
30339;BME280;795;49.296;11.348;2023-02-01T08:43:57;96501.91;;;2.72;100.00
30339;BME280;795;49.296;11.348;2023-02-01T08:46:24;96573.31;;;3.30;100.00
30339;BME280;795;49.296;11.348;2023-02-01T08:48:52;96431.53;;;2.46;100.00
30339;BME280;795;49.296;11.348;2023-02-01T08:51:22;96614.06;;;3.52;100.00
30339;BME280;795;49.296;11.348;2023-02-01T08:53:50;96540.03;;;3.26;100.00
30339;BME280;795;49.296;11.348;2023-02-01T08:56:19;96602.25;;;3.67;100.00
30339;BME280;795;49.296;11.348;2023-02-01T08:58:46;96541.47;;;3.08;100.00
30339;BME280;795;49.296;11.348;2023-02-01T09:03:42;96618.28;;;3.54;100.00
30339;BME280;795;49.296;11.348;2023-02-01T09:06:15;96561.50;;;3.23;100.00
30339;BME280;795;49.296;11.348;2023-02-01T09:08:43;96313.38;;;1.77;100.00
30339;BME280;795;49.296;11.348;2023-02-01T09:11:17;96606.22;;;3.50;100.00
30339;BME280;795;49.296;11.348;2023-02-01T09:13:47;96598.28;;;3.39;100.00
30339;BME280;795;49.296;11.348;2023-02-01T09:16:15;96480.84;;;2.71;100.00
30339;BME280;795;49.296;11.348;2023-02-01T09:18:42;96329.00;;;1.69;100.00
30339;BME280;795;49.296;11.348;2023-02-01T09:21:28;96392.75;;;2.23;100.00
30339;BME280;795;49.296;11.348;2023-02-01T09:23:55;96464.69;;;2.74;100.00
30339;BME280;795;49.296;11.348;2023-02-01T09:26:22;96520.38;;;2.85;100.00
30339;BME280;795;49.296;11.348;2023-02-01T09:28:59;96557.16;;;3.00;100.00
30339;BME280;795;49.296;11.348;2023-02-01T09:31:26;96241.31;;;0.94;100.00
30339;BME280;795;49.296;11.348;2023-02-01T09:33:53;96457.00;;;2.14;100.00
30339;BME280;795;49.296;11.348;2023-02-01T09:36:20;96517.88;;;2.37;100.00
30339;BME280;795;49.296;11.348;2023-02-01T09:38:47;96405.13;;;1.65;100.00
30339;BME280;795;49.296;11.348;2023-02-01T09:44:45;96600.16;;;2.93;100.00
30339;BME280;795;49.296;11.348;2023-02-01T09:47:18;96646.88;;;3.28;100.00
30339;BME280;795;49.296;11.348;2023-02-01T09:50:03;96549.97;;;2.67;100.00
30339;BME280;795;49.296;11.348;2023-02-01T09:52:59;96528.50;;;2.48;100.00
30339;BME280;795;49.296;11.348;2023-02-01T09:55:43;96566.50;;;2.71;100.00
30339;BME280;795;49.296;11.348;2023-02-01T09:58:29;96660.00;;;3.30;100.00
30339;BME280;795;49.296;11.348;2023-02-01T10:01:01;96335.16;;;1.34;100.00
30339;BME280;795;49.296;11.348;2023-02-01T10:03:34;96654.34;;;3.23;100.00
30339;BME280;795;49.296;11.348;2023-02-01T10:06:44;96666.25;;;2.37;100.00
30339;BME280;795;49.296;11.348;2023-02-01T10:13:19;96665.06;;;1.81;100.00
30339;BME280;795;49.296;11.348;2023-02-01T10:16:37;96693.63;;;2.25;100.00
30339;BME280;795;49.296;11.348;2023-02-01T10:22:10;96713.44;;;3.25;100.00
30339;BME280;795;49.296;11.348;2023-02-01T10:24:49;96672.22;;;3.99;100.00
30339;BME280;795;49.296;11.348;2023-02-01T10:27:37;96666.53;;;5.10;100.00
30339;BME280;795;49.296;11.348;2023-02-01T10:30:24;96652.84;;;5.14;100.00
30339;BME280;795;49.296;11.348;2023-02-01T10:33:23;96659.69;;;4.76;100.00
30339;BME280;795;49.296;11.348;2023-02-01T10:36:21;96632.38;;;4.94;100.00
30339;BME280;795;49.296;11.348;2023-02-01T10:38:48;96659.72;;;5.17;100.00
30339;BME280;795;49.296;11.348;2023-02-01T10:41:21;96641.59;;;4.90;100.00
30339;BME280;795;49.296;11.348;2023-02-01T10:43:58;96520.34;;;3.94;100.00
30339;BME280;795;49.296;11.348;2023-02-01T10:46:26;96377.28;;;3.05;100.00
30339;BME280;795;49.296;11.348;2023-02-01T10:48:58;96592.38;;;4.12;100.00
30339;BME280;795;49.296;11.348;2023-02-01T10:54:31;96645.72;;;4.20;100.00
30339;BME280;795;49.296;11.348;2023-02-01T10:56:58;96504.81;;;3.35;100.00
30339;BME280;795;49.296;11.348;2023-02-01T10:59:29;96457.81;;;3.04;100.00
30339;BME280;795;49.296;11.348;2023-02-01T11:02:13;96624.09;;;4.24;100.00
30339;BME280;795;49.296;11.348;2023-02-01T11:04:42;96461.63;;;3.33;100.00
30339;BME280;795;49.296;11.348;2023-02-01T11:07:25;96415.34;;;3.15;100.00
30339;BME280;795;49.296;11.348;2023-02-01T11:09:55;96494.50;;;4.28;100.00
30339;BME280;795;49.296;11.348;2023-02-01T11:12:36;96583.69;;;5.24;100.00
30339;BME280;795;49.296;11.348;2023-02-01T11:15:26;96593.16;;;5.68;100.00
30339;BME280;795;49.296;11.348;2023-02-01T11:17:53;96498.63;;;5.53;100.00
30339;BME280;795;49.296;11.348;2023-02-01T11:20:35;96599.44;;;5.97;100.00
30339;BME280;795;49.296;11.348;2023-02-01T11:23:19;96556.81;;;6.07;100.00
30339;BME280;795;49.296;11.348;2023-02-01T11:26:00;96580.31;;;6.51;100.00
30339;BME280;795;49.296;11.348;2023-02-01T11:28:35;96586.72;;;7.62;100.00
30339;BME280;795;49.296;11.348;2023-02-01T11:31:11;96577.16;;;7.13;99.19
30339;BME280;795;49.296;11.348;2023-02-01T11:33:57;96557.84;;;6.44;100.00
30339;BME280;795;49.296;11.348;2023-02-01T11:36:31;96447.06;;;5.54;100.00
30339;BME280;795;49.296;11.348;2023-02-01T11:44:48;96577.53;;;5.23;100.00
30339;BME280;795;49.296;11.348;2023-02-01T11:49:51;96563.16;;;4.85;100.00
30339;BME280;795;49.296;11.348;2023-02-01T11:56:07;96564.19;;;4.72;100.00
30339;BME280;795;49.296;11.348;2023-02-01T12:05:19;96494.53;;;5.09;100.00
30339;BME280;795;49.296;11.348;2023-02-01T12:11:42;96525.94;;;5.15;100.00
30339;BME280;795;49.296;11.348;2023-02-01T12:17:42;96462.53;;;4.90;100.00
30339;BME280;795;49.296;11.348;2023-02-01T12:20:55;96541.16;;;5.33;100.00
30339;BME280;795;49.296;11.348;2023-02-01T12:26:45;96528.88;;;5.12;100.00
30339;BME280;795;49.296;11.348;2023-02-01T12:32:45;96542.31;;;4.90;100.00
30339;BME280;795;49.296;11.348;2023-02-01T12:36:01;96526.84;;;4.74;100.00
30339;BME280;795;49.296;11.348;2023-02-01T12:41:35;96490.28;;;4.25;100.00
30339;BME280;795;49.296;11.348;2023-02-01T12:44:37;96508.09;;;4.34;100.00
30339;BME280;795;49.296;11.348;2023-02-01T12:47:34;96514.50;;;4.32;100.00
30339;BME280;795;49.296;11.348;2023-02-01T12:50:18;96511.91;;;4.41;100.00
30339;BME280;795;49.296;11.348;2023-02-01T12:52:53;96485.19;;;4.01;100.00
30339;BME280;795;49.296;11.348;2023-02-01T12:55:46;96364.97;;;3.47;100.00
30339;BME280;795;49.296;11.348;2023-02-01T12:58:28;96531.63;;;4.39;100.00
30339;BME280;795;49.296;11.348;2023-02-01T13:01:30;96508.47;;;4.30;100.00
30339;BME280;795;49.296;11.348;2023-02-01T13:04:25;96517.13;;;4.43;100.00
30339;BME280;795;49.296;11.348;2023-02-01T13:07:18;96533.91;;;4.43;100.00
30339;BME280;795;49.296;11.348;2023-02-01T13:10:03;96529.34;;;4.34;100.00
30339;BME280;795;49.296;11.348;2023-02-01T13:12:44;96471.84;;;3.92;100.00
30339;BME280;795;49.296;11.348;2023-02-01T13:15:30;96504.97;;;4.09;100.00
30339;BME280;795;49.296;11.348;2023-02-01T13:18:05;96525.66;;;3.94;100.00
30339;BME280;795;49.296;11.348;2023-02-01T13:21:03;96422.22;;;3.29;100.00
30339;BME280;795;49.296;11.348;2023-02-01T13:23:38;96372.25;;;2.91;100.00
30339;BME280;795;49.296;11.348;2023-02-01T13:26:06;96453.09;;;3.62;100.00
30339;BME280;795;49.296;11.348;2023-02-01T13:28:55;96496.13;;;3.76;100.00
30339;BME280;795;49.296;11.348;2023-02-01T13:31:56;96512.84;;;3.99;100.00
30339;BME280;795;49.296;11.348;2023-02-01T13:34:54;96517.09;;;4.22;100.00
30339;BME280;795;49.296;11.348;2023-02-01T13:44:00;96474.66;;;3.79;100.00
30339;BME280;795;49.296;11.348;2023-02-01T13:46:29;96392.41;;;3.37;100.00
30339;BME280;795;49.296;11.348;2023-02-01T13:49:02;96485.34;;;3.57;100.00
30339;BME280;795;49.296;11.348;2023-02-01T13:51:43;96501.19;;;3.37;100.00
30339;BME280;795;49.296;11.348;2023-02-01T13:57:02;96308.94;;;1.77;100.00
30339;BME280;795;49.296;11.348;2023-02-01T14:10:56;96544.94;;;3.42;100.00
30339;BME280;795;49.296;11.348;2023-02-01T14:13:40;96527.72;;;3.37;100.00
30339;BME280;795;49.296;11.348;2023-02-01T14:16:16;96493.47;;;3.22;100.00
30339;BME280;795;49.296;11.348;2023-02-01T14:18:54;96403.09;;;2.81;100.00
30339;BME280;795;49.296;11.348;2023-02-01T14:21:53;96453.44;;;3.25;100.00
30339;BME280;795;49.296;11.348;2023-02-01T14:24:35;96369.38;;;2.72;100.00
30339;BME280;795;49.296;11.348;2023-02-01T14:29:43;96520.75;;;3.78;100.00
30339;BME280;795;49.296;11.348;2023-02-01T14:32:21;96398.97;;;3.21;100.00
30339;BME280;795;49.296;11.348;2023-02-01T14:34:56;96322.44;;;3.06;100.00
30339;BME280;795;49.296;11.348;2023-02-01T14:37:37;96384.75;;;3.11;100.00
30339;BME280;795;49.296;11.348;2023-02-01T14:50:41;96453.66;;;3.76;100.00
30339;BME280;795;49.296;11.348;2023-02-01T14:59:01;96522.00;;;4.06;100.00
30339;BME280;795;49.296;11.348;2023-02-01T15:01:38;96426.00;;;3.47;100.00
30339;BME280;795;49.296;11.348;2023-02-01T15:04:15;96526.25;;;3.97;100.00
30339;BME280;795;49.296;11.348;2023-02-01T15:07:05;96419.09;;;3.24;100.00
30339;BME280;795;49.296;11.348;2023-02-01T15:09:47;96441.97;;;3.36;100.00
30339;BME280;795;49.296;11.348;2023-02-01T15:12:26;96535.69;;;3.90;100.00
30339;BME280;795;49.296;11.348;2023-02-01T15:15:20;96489.22;;;3.53;100.00
30339;BME280;795;49.296;11.348;2023-02-01T15:17:57;96507.84;;;3.74;100.00
30339;BME280;795;49.296;11.348;2023-02-01T15:20:30;96391.47;;;3.15;100.00
30339;BME280;795;49.296;11.348;2023-02-01T15:23:14;96504.34;;;3.73;100.00
30339;BME280;795;49.296;11.348;2023-02-01T15:25:46;96508.56;;;3.87;100.00
30339;BME280;795;49.296;11.348;2023-02-01T15:28:16;96509.13;;;3.90;100.00
30339;BME280;795;49.296;11.348;2023-02-01T15:31:00;96501.88;;;3.92;100.00
30339;BME280;795;49.296;11.348;2023-02-01T15:33:30;96516.00;;;3.93;100.00